Ginys del Meteocat

Dades de l'estació automàtica Benissanet

?
?
Resum diari 21:30 TU
Dades diàries de l'estació meteorològica
Temperatura mitjana 6.8 °C
Temperatura màxima 14.8 °C 15:46 TU
Temperatura mínima 3.3 °C 6:34 TU
Humitat relativa mitjana 94%
Precipitació acumulada 0.1 mm
Ratxa màxima del vent (10 m) 9.0 km/h - 359º 17:04 TU
Irradiació solar global 7.3 MJ/m2

El tram horari està expressat en Temps Universal (TU). Cal sumar una hora en horari d'hivern i dues en horari d'estiu per passar a l'hora oficial.

Benissanet

Metadades estació meteorol´gica
Municipi Benissanet
Comarca Ribera d'Ebre
Altitud 32 m
Data alta 14.07.1993
Estat actual Operativa
Dades de període
Període
TU
TM
°C
TX
°C
TN
°C
HRM
%
PPT
mm
VVM (10 m)
km/h
DVM (10 m)
graus
VVX (10 m)
km/h
RS
W/m2
00:00 - 00:30 4.4 4.7 4.2 100 0.0 1.1 253 2.9 0
00:30 - 01:00 4.7 4.7 4.6 100 0.0 1.1 239 6.1 0
01:00 - 01:30 4.5 4.6 4.4 100 0.0 1.8 200 6.1 0
01:30 - 02:00 4.4 4.6 4.4 100 0.0 1.1 134 2.9 0
02:00 - 02:30 4.4 4.6 4.2 100 0.0 2.5 316 5.0 0
02:30 - 03:00 4.1 4.2 4.1 100 0.0 2.9 284 5.4 0
03:00 - 03:30 4.1 4.2 4.1 100 0.0 2.9 289 5.0 0
03:30 - 04:00 4.1 4.1 4.0 100 0.0 0.4 288 2.2 0
04:00 - 04:30 4.1 4.1 4.1 100 0.0 0.4 308 2.5 0
04:30 - 05:00 4.1 4.2 4.1 100 0.0 1.8 7 4.0 0
05:00 - 05:30 4.0 4.1 3.9 100 0.0 2.9 324 6.8 0
05:30 - 06:00 3.7 3.9 3.5 100 0.0 3.2 270 6.5 0
06:00 - 06:30 3.4 3.5 3.3 100 0.1 2.9 286 4.3 0
06:30 - 07:00 3.4 3.6 3.3 100 0.0 1.1 274 4.0 0
07:00 - 07:30 3.6 3.7 3.6 100 0.0 0.7 305 4.0 3
07:30 - 08:00 3.6 3.6 3.4 100 0.0 2.2 334 6.1 15
08:00 - 08:30 3.6 3.7 3.5 100 0.0 1.8 331 4.3 38
08:30 - 09:00 3.6 3.9 3.5 100 0.0 1.8 80 4.3 67
09:00 - 09:30 4.0 4.1 3.9 100 0.0 1.1 349 4.3 74
09:30 - 10:00 4.2 4.5 4.0 100 0.0 0.7 60 4.3 113
10:00 - 10:30 4.5 4.7 4.3 100 0.0 1.8 46 5.4 165
10:30 - 11:00 4.8 5.2 4.4 100 0.0 1.8 36 6.8 210
11:00 - 11:30 5.4 5.9 5.1 100 0.0 2.5 24 5.8 258
11:30 - 12:00 6.5 7.4 5.9 100 0.0 1.8 278 4.3 429
12:00 - 12:30 7.5 8.9 6.8 98 0.0 1.8 213 5.8 465
12:30 - 13:00 9.6 10.7 9.1 87 0.0 0.7 138 4.3 485
13:00 - 13:30 11.5 12.9 10.8 79 0.0 1.8 3 7.6 447
13:30 - 14:00 13.0 13.3 12.7 73 0.0 1.4 30 4.3 317
14:00 - 14:30 13.1 14.2 12.5 73 0.0 0.7 151 4.3 290
14:30 - 15:00 13.7 14.0 13.4 69 0.0 1.1 165 4.3 281
15:00 - 15:30 14.1 14.6 13.7 68 0.0 0.7 107 3.6 240
15:30 - 16:00 14.4 14.8 13.8 67 0.0 1.1 357 4.3 146
16:00 - 16:30 12.8 13.8 12.0 77 0.0 2.2 314 4.0 41
16:30 - 17:00 11.3 11.9 11.0 81 0.0 2.9 343 7.6 12
17:00 - 17:30 10.4 11.0 9.6 81 0.0 4.7 356 9.0 0
17:30 - 18:00 9.1 9.6 8.9 91 0.0 1.8 273 6.5 0
18:00 - 18:30 8.6 8.9 8.3 97 0.0 2.5 77 5.0 0
18:30 - 19:00 7.9 8.6 7.2 99 0.0 1.4 237 4.0 0
19:00 - 19:30 7.4 7.5 7.2 100 0.0 2.9 9 5.4 0
19:30 - 20:00 7.3 7.5 7.1 100 0.0 0.7 67 3.6 0
20:00 - 20:30 7.3 7.4 7.2 100 0.0 0.7 70 3.2 0
20:30 - 21:00 7.0 7.1 7.0 100 0.0 1.4 342 3.2 0
21:00 - 21:30 7.0 7.1 7.0 100 0.0 0.7 239 2.2 0
21:30 - 22:00 7.1 7.2 7.0 100 0.0 1.1 93 2.9 0

Les dades en taronja només han passat un control de qualitat automàtic. Resta pendent la seva validació definitiva.